createdAt,value
2018-05-15T00:01:03.361Z,5.75
2018-05-15T00:02:09.717Z,5.22
2018-05-15T00:03:15.984Z,5.95
2018-05-15T00:04:22.295Z,5.20
2018-05-15T00:05:29.576Z,5.40
2018-05-15T00:06:35.834Z,5.10
2018-05-15T00:07:41.870Z,5.20
2018-05-15T00:08:55.658Z,4.97
2018-05-15T00:10:01.932Z,5.90
2018-05-15T00:11:13.239Z,5.50
2018-05-15T00:12:19.592Z,6.05
2018-05-15T00:13:25.880Z,5.50
2018-05-15T00:14:32.183Z,4.68
2018-05-15T00:15:38.563Z,5.10
2018-05-15T00:16:45.701Z,5.93
2018-05-15T00:17:51.985Z,5.82
2018-05-15T00:18:58.295Z,5.87
2018-05-15T00:20:04.258Z,5.90
2018-05-15T00:21:12.324Z,5.78
2018-05-15T00:22:19.611Z,5.80
2018-05-15T00:23:26.386Z,5.40
2018-05-15T00:24:32.678Z,6.00
2018-05-15T00:25:38.922Z,5.60
2018-05-15T00:26:45.221Z,5.55
2018-05-15T00:27:51.574Z,5.22
2018-05-15T00:28:57.854Z,5.37
2018-05-15T00:30:07.271Z,5.32
2018-05-15T00:31:13.473Z,5.45
2018-05-15T00:32:19.737Z,5.10
2018-05-15T00:33:25.986Z,5.70
2018-05-15T00:34:32.298Z,6.43
2018-05-15T00:35:38.805Z,6.35
2018-05-15T00:36:45.068Z,5.18
2018-05-15T00:37:52.076Z,5.00
2018-05-15T00:38:59.664Z,5.70
2018-05-15T00:40:06.022Z,5.10
2018-05-15T00:41:12.304Z,6.43
2018-05-15T00:42:18.274Z,5.70
2018-05-15T00:43:24.634Z,5.22
2018-05-15T00:44:34.085Z,5.93
2018-05-15T00:45:40.392Z,6.05
2018-05-15T00:46:46.728Z,5.78
2018-05-15T00:47:53.066Z,5.90
2018-05-15T00:49:00.253Z,6.60
2018-05-15T00:50:06.560Z,5.93
2018-05-15T00:51:12.878Z,5.75
2018-05-15T00:52:19.091Z,5.43
2018-05-15T00:53:25.408Z,6.05
2018-05-15T00:54:32.229Z,6.07
2018-05-15T00:55:43.760Z,6.10
2018-05-15T00:56:50.059Z,6.20
2018-05-15T00:57:56.288Z,6.47
2018-05-15T00:59:02.269Z,5.80
2018-05-15T01:00:08.588Z,5.65
2018-05-15T01:01:15.499Z,5.45
2018-05-15T01:02:21.554Z,6.05
2018-05-15T01:03:27.880Z,6.03
2018-05-15T01:04:34.175Z,6.25
2018-05-15T01:05:40.431Z,5.47
2018-05-15T01:06:46.697Z,6.25
2018-05-15T01:07:52.978Z,5.97
2018-05-15T01:08:59.315Z,6.45
2018-05-15T01:10:06.360Z,5.78
2018-05-15T01:11:12.650Z,6.10
2018-05-15T01:12:18.941Z,6.80
2018-05-15T01:13:25.281Z,6.03
2018-05-15T01:14:31.602Z,6.15
2018-05-15T01:15:37.847Z,6.30
2018-05-15T01:16:43.903Z,6.30
2018-05-15T01:17:50.222Z,6.50
2018-05-15T01:18:56.738Z,6.00
2018-05-15T01:20:02.778Z,6.07
2018-05-15T01:21:09.133Z,6.32
2018-05-15T01:22:15.465Z,6.70
2018-05-15T01:23:21.805Z,5.87
2018-05-15T01:24:27.813Z,5.97
2018-05-15T01:25:34.075Z,6.10
2018-05-15T01:26:40.279Z,6.80
2018-05-15T01:27:46.483Z,6.55
2018-05-15T01:28:57.737Z,5.65
2018-05-15T01:30:03.698Z,6.53
2018-05-15T01:31:09.935Z,6.50
2018-05-15T01:32:16.794Z,6.55
2018-05-15T01:33:23.214Z,6.30
2018-05-15T01:34:29.477Z,5.95
2018-05-15T01:35:35.903Z,6.40
2018-05-15T01:36:42.250Z,6.60
2018-05-15T01:37:48.505Z,6.93
2018-05-15T01:38:54.864Z,6.90
2018-05-15T01:40:01.144Z,6.62
2018-05-15T01:41:07.598Z,6.60
2018-05-15T01:42:14.422Z,7.20
2018-05-15T01:43:20.740Z,6.95
2018-05-15T01:44:27.010Z,6.68
2018-05-15T01:45:33.308Z,6.32
2018-05-15T01:46:38.855Z,6.82
2018-05-15T01:47:45.429Z,6.65
2018-05-15T01:48:51.752Z,6.85
2018-05-15T01:49:58.133Z,6.28
2018-05-15T01:51:04.453Z,7.80
2018-05-15T01:52:10.776Z,6.65
2018-05-15T01:53:17.170Z,6.47
2018-05-15T01:54:29.030Z,7.43
2018-05-15T01:55:35.335Z,6.60
2018-05-15T01:56:41.538Z,6.57
2018-05-15T01:57:47.734Z,6.80
2018-05-15T01:58:53.997Z,6.32
2018-05-15T02:00:00.261Z,6.90
2018-05-15T02:01:07.119Z,7.65
2018-05-15T02:02:17.314Z,6.95
2018-05-15T02:03:26.714Z,7.22
2018-05-15T02:04:34.872Z,6.78
2018-05-15T02:05:41.249Z,7.00
2018-05-15T02:06:47.590Z,6.35
2018-05-15T02:07:53.878Z,6.87
2018-05-15T02:09:00.228Z,7.32
2018-05-15T02:10:06.493Z,7.07
2018-05-15T02:11:13.580Z,7.45
2018-05-15T02:12:19.948Z,7.40
2018-05-15T02:13:26.246Z,7.37
2018-05-15T02:14:32.496Z,7.32
2018-05-15T02:15:38.712Z,8.20
2018-05-15T02:16:44.981Z,6.90
2018-05-15T02:17:51.217Z,6.87
2018-05-15T02:18:57.169Z,7.70
2018-05-15T02:20:03.512Z,9.02
2018-05-15T02:21:09.820Z,7.62
2018-05-15T02:22:17.051Z,7.18
2018-05-15T02:23:23.465Z,7.65
2018-05-15T02:24:29.823Z,7.55
2018-05-15T02:25:36.087Z,7.70
2018-05-15T02:26:42.301Z,7.95
2018-05-15T02:27:48.609Z,7.65
2018-05-15T02:28:54.952Z,7.40
2018-05-15T02:30:01.287Z,7.25
2018-05-15T02:31:07.563Z,7.12
2018-05-15T02:32:14.388Z,7.87
2018-05-15T02:33:21.154Z,7.07
2018-05-15T02:34:27.459Z,7.80
2018-05-15T02:35:33.726Z,7.70
2018-05-15T02:36:40.064Z,8.27
2018-05-15T02:37:46.340Z,7.93
2018-05-15T02:38:52.698Z,7.70
2018-05-15T02:39:59.001Z,7.70
2018-05-15T02:41:04.923Z,7.80
2018-05-15T02:42:11.221Z,8.10
2018-05-15T02:43:17.572Z,8.05
2018-05-15T02:44:23.649Z,7.50
2018-05-15T02:45:29.847Z,8.00
2018-05-15T02:46:36.116Z,8.73
2018-05-15T02:47:42.479Z,7.90
2018-05-15T02:48:49.952Z,7.68
2018-05-15T02:49:56.318Z,7.90
2018-05-15T02:51:02.592Z,7.80
2018-05-15T02:52:08.804Z,7.68
2018-05-15T02:53:17.165Z,8.63
2018-05-15T02:54:23.386Z,7.25
2018-05-15T02:55:29.673Z,7.50
2018-05-15T02:56:35.901Z,8.13
2018-05-15T02:57:42.211Z,7.97
2018-05-15T02:58:48.442Z,7.30
2018-05-15T02:59:56.138Z,8.68
2018-05-15T03:01:02.564Z,8.13
2018-05-15T03:02:08.792Z,8.27
2018-05-15T03:03:15.920Z,8.38
2018-05-15T03:04:22.558Z,8.38
2018-05-15T03:05:30.379Z,7.68
2018-05-15T03:06:39.794Z,8.07
2018-05-15T03:07:46.099Z,8.40
2018-05-15T03:08:52.418Z,9.05
2018-05-15T03:09:59.414Z,8.55
2018-05-15T03:11:05.645Z,8.50
2018-05-15T03:12:11.991Z,8.68
2018-05-15T03:13:17.935Z,8.07
2018-05-15T03:14:27.129Z,8.43
2018-05-15T03:15:34.180Z,8.13
2018-05-15T03:16:41.364Z,7.93
2018-05-15T03:17:47.626Z,8.13
2018-05-15T03:18:54.875Z,8.50
2018-05-15T03:20:01.289Z,9.30
2018-05-15T03:21:07.349Z,8.35
2018-05-15T03:22:14.116Z,8.35
2018-05-15T03:23:20.435Z,8.23
2018-05-15T03:24:27.315Z,9.48
2018-05-15T03:25:33.622Z,8.80
2018-05-15T03:26:39.935Z,8.60
2018-05-15T03:27:46.253Z,8.48
2018-05-15T03:28:52.570Z,9.32
2018-05-15T03:30:00.698Z,8.50
2018-05-15T03:31:06.715Z,9.30
2018-05-15T03:32:13.051Z,9.68
2018-05-15T03:33:19.365Z,8.98
2018-05-15T03:34:25.663Z,9.23
2018-05-15T03:35:32.186Z,8.05
2018-05-15T03:36:38.479Z,9.18
2018-05-15T03:37:44.707Z,8.80
2018-05-15T03:38:51.014Z,9.23
2018-05-15T03:39:57.350Z,9.10
2018-05-15T03:41:03.632Z,8.52
2018-05-15T03:42:10.000Z,8.80
2018-05-15T03:43:16.216Z,9.25
2018-05-15T03:44:22.539Z,9.20
2018-05-15T03:45:30.236Z,9.05
2018-05-15T03:46:37.847Z,8.50
2018-05-15T03:47:45.558Z,9.27
2018-05-15T03:48:53.538Z,10.05
2018-05-15T03:50:03.161Z,8.55
2018-05-15T03:51:13.348Z,9.65
2018-05-15T03:52:20.559Z,8.38
2018-05-15T03:53:29.148Z,8.65
2018-05-15T03:54:35.616Z,10.32
2018-05-15T03:55:41.854Z,8.30
2018-05-15T03:56:48.146Z,8.30
2018-05-15T03:57:54.500Z,8.80
2018-05-15T03:59:01.338Z,8.82
2018-05-15T04:00:18.949Z,8.40
2018-05-15T04:01:35.926Z,9.00
2018-05-15T04:02:53.209Z,7.65
2018-05-15T04:04:10.221Z,7.50
2018-05-15T04:05:27.324Z,9.02
2018-05-15T04:06:44.039Z,8.35
2018-05-15T04:08:01.210Z,8.90
2018-05-15T04:09:06.886Z,9.65
2018-05-15T04:10:13.144Z,8.77
2018-05-15T04:11:19.463Z,8.95
2018-05-15T04:12:25.769Z,9.00
2018-05-15T04:13:32.100Z,10.32
2018-05-15T04:14:38.364Z,9.25
2018-05-15T04:15:44.809Z,9.02
2018-05-15T04:16:51.084Z,8.90
2018-05-15T04:17:57.197Z,8.82
2018-05-15T04:19:04.402Z,9.70
2018-05-15T04:20:10.756Z,9.68
2018-05-15T04:21:18.084Z,8.93
2018-05-15T04:22:24.982Z,9.55
2018-05-15T04:23:31.207Z,8.85
2018-05-15T04:24:37.995Z,10.70
2018-05-15T04:25:45.092Z,9.27
2018-05-15T04:26:51.399Z,9.88
2018-05-15T04:27:57.762Z,9.48
2018-05-15T04:29:04.321Z,9.02
2018-05-15T04:30:10.565Z,9.93
2018-05-15T04:31:16.960Z,9.15
2018-05-15T04:32:23.259Z,10.48
2018-05-15T04:33:29.560Z,9.38
2018-05-15T04:34:35.878Z,9.77
2018-05-15T04:35:42.202Z,8.70
2018-05-15T04:36:48.209Z,9.80
2018-05-15T04:37:55.381Z,9.40
2018-05-15T04:39:01.836Z,9.65
2018-05-15T04:40:07.548Z,9.63
2018-05-15T04:41:13.867Z,9.35
2018-05-15T04:42:20.173Z,9.98
2018-05-15T04:43:26.583Z,9.45
2018-05-15T04:44:32.818Z,8.80
2018-05-15T04:45:39.123Z,10.15
2018-05-15T04:46:45.415Z,9.55
2018-05-15T04:47:51.724Z,10.35
2018-05-15T04:48:58.117Z,9.30
2018-05-15T04:50:04.168Z,10.35
2018-05-15T04:51:10.182Z,9.95
2018-05-15T04:52:16.459Z,9.88
2018-05-15T04:53:23.310Z,9.70
2018-05-15T04:54:29.633Z,10.13
2018-05-15T04:55:36.033Z,10.35
2018-05-15T04:56:42.443Z,9.63
2018-05-15T04:57:48.742Z,10.32
2018-05-15T04:58:55.026Z,10.35
2018-05-15T05:00:01.590Z,9.07
2018-05-15T05:01:07.995Z,9.93
2018-05-15T05:02:14.323Z,9.77
2018-05-15T05:03:20.602Z,11.07
2018-05-15T05:04:26.888Z,11.10
2018-05-15T05:05:33.229Z,10.98
2018-05-15T05:06:40.773Z,10.48
2018-05-15T05:07:47.664Z,10.40
2018-05-15T05:08:53.766Z,11.02
2018-05-15T05:10:00.043Z,9.65
2018-05-15T05:11:06.330Z,10.00
2018-05-15T05:12:12.662Z,10.18
2018-05-15T05:13:20.418Z,10.60
2018-05-15T05:14:27.274Z,10.82
2018-05-15T05:15:33.643Z,10.30
2018-05-15T05:16:40.359Z,10.65
2018-05-15T05:17:47.352Z,10.40
2018-05-15T05:18:53.910Z,9.98
2018-05-15T05:20:00.584Z,9.18
2018-05-15T05:21:07.162Z,9.60
2018-05-15T05:22:13.934Z,9.68
2018-05-15T05:23:20.240Z,9.55
2018-05-15T05:24:26.554Z,8.80
2018-05-15T05:25:32.866Z,9.98
2018-05-15T05:26:39.223Z,10.18
2018-05-15T05:27:45.491Z,10.55
2018-05-15T05:28:52.629Z,10.63
2018-05-15T05:29:59.428Z,9.55
2018-05-15T05:31:05.290Z,9.90
2018-05-15T05:32:11.530Z,9.80
2018-05-15T05:33:17.787Z,10.13
2018-05-15T05:34:24.090Z,10.40
2018-05-15T05:35:30.393Z,10.75
2018-05-15T05:36:36.733Z,9.55
2018-05-15T05:37:43.060Z,9.82
2018-05-15T05:38:49.365Z,10.32
2018-05-15T05:39:55.651Z,9.05
2018-05-15T05:41:02.076Z,9.85
2018-05-15T05:42:09.627Z,10.05
2018-05-15T05:43:15.897Z,10.85
2018-05-15T05:44:22.312Z,10.70
2018-05-15T05:45:29.240Z,10.43
2018-05-15T05:46:35.570Z,10.02
2018-05-15T05:47:41.909Z,10.88
2018-05-15T05:48:48.160Z,10.15
2018-05-15T05:49:54.434Z,9.20
2018-05-15T05:51:00.697Z,9.65
2018-05-15T05:52:07.107Z,9.75
2018-05-15T05:53:13.550Z,10.68
2018-05-15T05:54:19.849Z,9.93
2018-05-15T05:55:26.172Z,9.98
2018-05-15T05:56:32.185Z,10.13
2018-05-15T05:57:38.492Z,10.55
2018-05-15T05:58:44.784Z,9.27
2018-05-15T05:59:51.109Z,10.43
2018-05-15T06:00:57.413Z,10.00
2018-05-15T06:02:03.863Z,10.52
2018-05-15T06:03:10.160Z,10.70
2018-05-15T06:04:16.438Z,12.37
2018-05-15T06:05:22.775Z,11.75
2018-05-15T06:06:29.114Z,10.88
2018-05-15T06:07:35.546Z,10.80
2018-05-15T06:08:41.812Z,10.57
2018-05-15T06:09:49.877Z,10.70
2018-05-15T06:10:56.286Z,10.15
2018-05-15T06:12:02.718Z,10.70
2018-05-15T06:13:09.010Z,9.75
2018-05-15T06:14:15.466Z,10.27
2018-05-15T06:15:22.750Z,10.52
2018-05-15T06:16:29.049Z,9.65
2018-05-15T06:17:35.590Z,10.90
2018-05-15T06:18:41.576Z,10.20
2018-05-15T06:19:47.997Z,10.45
2018-05-15T06:20:55.388Z,11.10
2018-05-15T06:22:01.848Z,11.18
2018-05-15T06:23:08.173Z,10.82
2018-05-15T06:24:14.490Z,9.98
2018-05-15T06:25:20.780Z,10.18
2018-05-15T06:26:28.244Z,10.05
2018-05-15T06:27:34.617Z,10.45
2018-05-15T06:28:41.150Z,10.32
2018-05-15T06:29:47.483Z,10.38
2018-05-15T06:30:53.764Z,10.50
2018-05-15T06:32:00.110Z,10.98
2018-05-15T06:33:06.426Z,9.65
2018-05-15T06:34:12.823Z,9.88
2018-05-15T06:35:19.108Z,9.98
2018-05-15T06:36:26.832Z,10.32
2018-05-15T06:37:33.650Z,10.18
2018-05-15T06:38:39.918Z,9.93
2018-05-15T06:39:46.204Z,10.00
2018-05-15T06:40:52.537Z,9.07
2018-05-15T06:41:58.821Z,9.55
2018-05-15T06:43:05.154Z,8.93
2018-05-15T06:44:11.501Z,9.32
2018-05-15T06:45:17.740Z,8.68
2018-05-15T06:46:23.976Z,9.50
2018-05-15T06:47:30.279Z,9.10
2018-05-15T06:48:36.612Z,8.70
2018-05-15T06:49:42.907Z,10.18
2018-05-15T06:50:49.130Z,9.52
2018-05-15T06:51:55.405Z,9.30
2018-05-15T06:53:02.444Z,9.48
2018-05-15T06:54:08.672Z,10.27
2018-05-15T06:55:15.530Z,8.95
2018-05-15T06:56:21.805Z,9.40
2018-05-15T06:57:28.148Z,10.05
2018-05-15T06:58:34.454Z,9.98
2018-05-15T06:59:41.738Z,9.63
2018-05-15T07:00:47.993Z,9.73
2018-05-15T07:01:54.400Z,9.90
2018-05-15T07:03:00.821Z,9.80
2018-05-15T07:04:07.143Z,10.10
2018-05-15T07:05:13.426Z,9.65
2018-05-15T07:06:19.653Z,9.85
2018-05-15T07:07:25.928Z,8.63
2018-05-15T07:08:32.201Z,9.73
2018-05-15T07:09:38.216Z,8.88
2018-05-15T07:10:44.701Z,9.10
2018-05-15T07:11:50.999Z,9.23
2018-05-15T07:12:57.501Z,9.90
2018-05-15T07:14:04.009Z,8.95
2018-05-15T07:15:10.436Z,9.00
2018-05-15T07:16:16.744Z,9.50
2018-05-15T07:17:23.075Z,9.25
2018-05-15T07:18:29.387Z,9.48
2018-05-15T07:19:35.734Z,9.35
2018-05-15T07:20:42.194Z,10.07
2018-05-15T07:21:48.497Z,8.50
2018-05-15T07:22:54.709Z,9.15
2018-05-15T07:24:01.030Z,9.40
2018-05-15T07:25:07.894Z,9.25
2018-05-15T07:26:14.130Z,8.45
2018-05-15T07:27:20.486Z,10.13
2018-05-15T07:28:27.422Z,10.00
2018-05-15T07:29:33.857Z,8.60
2018-05-15T07:30:40.129Z,8.13
2018-05-15T07:31:46.484Z,8.27
2018-05-15T07:32:52.397Z,7.47
2018-05-15T07:33:58.667Z,8.93
2018-05-15T07:35:04.986Z,8.38
2018-05-15T07:36:11.432Z,8.43
2018-05-15T07:37:17.637Z,7.95
2018-05-15T07:38:23.917Z,8.73
2018-05-15T07:39:30.245Z,8.60
2018-05-15T07:40:36.758Z,7.85
2018-05-15T07:41:43.033Z,8.00
2018-05-15T07:42:49.313Z,9.00
2018-05-15T07:43:56.211Z,7.95
2018-05-15T07:45:03.201Z,8.68
2018-05-15T07:46:09.547Z,10.15
2018-05-15T07:47:16.136Z,9.00
2018-05-15T07:48:22.555Z,9.73
2018-05-15T07:49:29.681Z,9.70
2018-05-15T07:50:35.993Z,9.02
2018-05-15T07:51:43.042Z,9.60
2018-05-15T07:52:49.370Z,8.93
2018-05-15T07:53:55.720Z,9.73
2018-05-15T07:55:01.914Z,8.52
2018-05-15T07:56:08.176Z,9.35
2018-05-15T07:57:14.501Z,8.95
2018-05-15T07:58:20.799Z,8.93
2018-05-15T07:59:27.121Z,8.82
2018-05-15T08:00:34.160Z,9.50
2018-05-15T08:01:41.298Z,8.93
2018-05-15T08:02:47.576Z,9.50
2018-05-15T08:03:53.929Z,9.25
2018-05-15T08:04:59.977Z,8.20
2018-05-15T08:06:06.190Z,9.00
2018-05-15T08:07:12.465Z,9.38
2018-05-15T08:08:18.889Z,8.68
2018-05-15T08:09:25.720Z,8.05
2018-05-15T08:10:32.313Z,9.40
2018-05-15T08:11:38.890Z,8.82
2018-05-15T08:12:45.484Z,8.90
2018-05-15T08:13:51.730Z,9.20
2018-05-15T08:14:58.063Z,9.57
2018-05-15T08:16:04.343Z,9.13
2018-05-15T08:17:10.654Z,8.77
2018-05-15T08:18:16.941Z,9.15
2018-05-15T08:19:23.321Z,9.60
2018-05-15T08:20:29.583Z,8.55
2018-05-15T08:21:36.344Z,8.60
2018-05-15T08:22:42.412Z,8.05
2018-05-15T08:23:48.733Z,8.05
2018-05-15T08:24:55.063Z,8.05
2018-05-15T08:26:01.254Z,8.05
2018-05-15T08:27:07.767Z,8.45
2018-05-15T08:28:14.226Z,8.07
2018-05-15T08:29:20.488Z,8.10
2018-05-15T08:30:26.833Z,8.30
2018-05-15T08:31:33.147Z,8.10
2018-05-15T08:32:39.416Z,8.65
2018-05-15T08:33:45.741Z,8.10
2018-05-15T08:34:52.175Z,8.52
2018-05-15T08:35:59.129Z,7.95
2018-05-15T08:37:05.415Z,9.10
2018-05-15T08:38:11.694Z,8.23
2018-05-15T08:39:17.930Z,7.62
2018-05-15T08:40:24.240Z,8.43
2018-05-15T08:41:30.572Z,8.25
2018-05-15T08:42:36.859Z,8.88
2018-05-15T08:43:43.186Z,6.95
2018-05-15T08:44:49.505Z,7.97
2018-05-15T08:45:55.790Z,7.62
2018-05-15T08:47:02.085Z,7.47
2018-05-15T08:48:08.311Z,7.65
2018-05-15T08:49:14.344Z,7.28
2018-05-15T08:50:21.137Z,8.05
2018-05-15T08:51:28.553Z,7.90
2018-05-15T08:52:35.702Z,7.68
2018-05-15T08:53:42.033Z,6.95
2018-05-15T08:54:48.345Z,7.78
2018-05-15T08:55:54.691Z,7.55
2018-05-15T08:57:00.941Z,8.05
2018-05-15T08:58:12.925Z,7.65
2018-05-15T08:59:19.195Z,7.20
2018-05-15T09:00:25.531Z,6.87
2018-05-15T09:01:31.871Z,7.70
2018-05-15T09:02:38.142Z,7.20
2018-05-15T09:03:44.448Z,8.00
2018-05-15T09:04:50.809Z,6.80
2018-05-15T09:05:57.091Z,7.82
2018-05-15T09:07:04.138Z,7.80
2018-05-15T09:08:10.902Z,7.20
2018-05-15T09:09:22.075Z,7.15
2018-05-15T09:10:28.387Z,7.37
2018-05-15T09:11:34.677Z,7.10
2018-05-15T09:12:40.985Z,6.75
2018-05-15T09:13:47.215Z,7.18
2018-05-15T09:14:53.504Z,7.60
2018-05-15T09:15:59.839Z,7.20
2018-05-15T09:17:06.127Z,6.55
2018-05-15T09:18:12.536Z,7.45
2018-05-15T09:19:19.017Z,6.40
2018-05-15T09:20:25.503Z,7.78
2018-05-15T09:21:31.763Z,7.80
2018-05-15T09:22:38.237Z,7.20
2018-05-15T09:23:45.184Z,6.37
2018-05-15T09:24:52.044Z,6.60
2018-05-15T09:25:58.388Z,6.40
2018-05-15T09:27:04.726Z,6.75
2018-05-15T09:28:11.012Z,6.43
2018-05-15T09:29:17.370Z,6.65
2018-05-15T09:30:23.821Z,6.43
2018-05-15T09:31:30.069Z,7.53
2018-05-15T09:32:36.345Z,6.03
2018-05-15T09:33:42.640Z,7.82
2018-05-15T09:34:48.968Z,5.82
2018-05-15T09:35:55.318Z,6.10
2018-05-15T09:37:01.583Z,6.40
2018-05-15T09:38:07.577Z,6.80
2018-05-15T09:39:14.805Z,5.97
2018-05-15T09:40:20.865Z,6.85
2018-05-15T09:41:27.177Z,6.62
2018-05-15T09:42:33.486Z,6.53
2018-05-15T09:45:11.496Z,7.25
2018-05-15T09:46:18.386Z,7.50
2018-05-15T09:47:24.703Z,7.70
2018-05-15T09:48:31.305Z,7.05
2018-05-15T09:49:38.575Z,6.85
2018-05-15T09:50:44.891Z,5.57
2018-05-15T09:51:51.200Z,5.57
2018-05-15T09:52:57.202Z,6.05
2018-05-15T09:54:03.489Z,6.65
2018-05-15T09:55:10.450Z,5.95
2018-05-15T09:56:16.406Z,6.70
2018-05-15T09:57:22.620Z,5.85
2018-05-15T09:58:28.881Z,6.07
2018-05-15T09:59:35.146Z,6.30
2018-05-15T10:00:41.362Z,5.80
2018-05-15T10:01:47.689Z,6.50
2018-05-15T10:02:54.018Z,5.78
2018-05-15T10:04:00.333Z,6.12
2018-05-15T10:05:06.610Z,5.93
2018-05-15T10:06:13.280Z,5.85
2018-05-15T10:07:20.201Z,5.95
2018-05-15T10:08:26.468Z,6.47
2018-05-15T10:09:32.833Z,6.00
2018-05-15T10:10:39.111Z,5.97
2018-05-15T10:11:45.746Z,5.50
2018-05-15T10:12:52.016Z,5.50
2018-05-15T10:13:58.368Z,5.75
2018-05-15T10:15:04.306Z,5.47
2018-05-15T10:16:10.549Z,5.43
2018-05-15T10:17:16.884Z,6.18
2018-05-15T10:18:23.205Z,5.10
2018-05-15T10:19:30.766Z,5.57
2018-05-15T10:20:37.690Z,5.57
2018-05-15T10:21:44.001Z,7.30
2018-05-15T10:22:50.313Z,6.25
2018-05-15T10:23:56.576Z,6.07
2018-05-15T10:25:03.679Z,5.65
2018-05-15T10:26:10.356Z,5.47
2018-05-15T10:27:16.670Z,7.12
2018-05-15T10:28:23.004Z,6.05
2018-05-15T10:29:29.813Z,5.43
2018-05-15T10:30:36.327Z,5.30
2018-05-15T10:31:42.631Z,5.55
2018-05-15T10:32:48.960Z,5.37
2018-05-15T10:33:54.882Z,5.40
2018-05-15T10:35:01.123Z,4.95
2018-05-15T10:36:07.454Z,5.75
2018-05-15T10:37:13.848Z,4.70
2018-05-15T10:38:20.284Z,5.00
2018-05-15T10:39:26.585Z,4.50
2018-05-15T10:40:33.401Z,5.40
2018-05-15T10:41:40.415Z,5.25
2018-05-15T10:42:46.624Z,4.47
2018-05-15T10:43:53.041Z,4.50
2018-05-15T10:44:59.507Z,4.62
2018-05-15T10:46:05.371Z,5.18
2018-05-15T10:47:11.590Z,4.35
2018-05-15T10:48:17.885Z,4.35
2018-05-15T10:49:24.283Z,4.60
2018-05-15T10:50:30.654Z,4.25
2018-05-15T10:51:36.889Z,5.15
2018-05-15T10:52:42.826Z,5.10
2018-05-15T10:53:49.038Z,4.97
2018-05-15T10:54:55.348Z,4.30
2018-05-15T10:56:01.722Z,4.78
2018-05-15T10:57:08.947Z,4.78
2018-05-15T10:58:15.534Z,5.43
2018-05-15T10:59:21.910Z,4.78
2018-05-15T11:00:28.356Z,4.43
2018-05-15T11:01:34.733Z,4.55
2018-05-15T11:02:41.076Z,5.28
2018-05-15T11:03:47.361Z,4.43
2018-05-15T11:04:53.565Z,4.82
2018-05-15T11:05:59.844Z,4.07
2018-05-15T11:07:07.964Z,4.87
2018-05-15T11:08:17.062Z,4.00
2018-05-15T11:09:24.527Z,4.72
2018-05-15T11:10:32.401Z,4.32
2018-05-15T11:11:41.978Z,4.80
2018-05-15T11:12:50.694Z,4.70
2018-05-15T11:13:59.051Z,4.20
2018-05-15T11:15:07.300Z,4.78
2018-05-15T11:16:15.021Z,5.07
2018-05-15T11:17:22.001Z,4.80
2018-05-15T11:18:45.942Z,4.80
2018-05-15T11:20:04.624Z,5.12
2018-05-15T11:21:22.292Z,5.22
2018-05-15T11:22:39.687Z,4.47
2018-05-15T11:23:57.020Z,5.87
2018-05-15T11:25:03.990Z,5.22
2018-05-15T11:26:10.310Z,5.65
2018-05-15T11:27:18.518Z,5.53
2018-05-15T11:28:26.515Z,4.97
2018-05-15T11:29:33.281Z,5.03
2018-05-15T11:30:40.811Z,5.93
2018-05-15T11:31:47.234Z,5.00
2018-05-15T11:32:53.520Z,5.30
2018-05-15T11:33:59.817Z,5.50
2018-05-15T11:35:05.444Z,6.10
2018-05-15T11:36:12.338Z,4.82
2018-05-15T11:37:18.736Z,4.90
2018-05-15T11:38:25.434Z,5.57
2018-05-15T11:39:32.133Z,5.53
2018-05-15T11:40:38.448Z,4.43
2018-05-15T11:41:44.744Z,5.75
2018-05-15T11:42:51.284Z,5.07
2018-05-15T11:43:58.183Z,4.85
2018-05-15T11:45:04.126Z,4.35
2018-05-15T11:46:11.038Z,4.82
2018-05-15T11:47:17.308Z,4.57
2018-05-15T11:48:24.394Z,4.50
2018-05-15T11:49:31.512Z,4.82
2018-05-15T11:50:37.909Z,5.55
2018-05-15T11:51:44.268Z,6.25
2018-05-15T11:52:50.871Z,5.78
2018-05-15T11:53:56.867Z,6.03
2018-05-15T11:55:03.353Z,8.10
2018-05-15T11:56:10.234Z,5.87
2018-05-15T11:57:17.129Z,7.30
2018-05-15T11:58:23.488Z,8.30
2018-05-15T11:59:30.337Z,7.32
2018-05-15T12:00:36.605Z,7.65
2018-05-15T12:01:42.937Z,8.98
2018-05-15T12:02:50.007Z,8.35
2018-05-15T12:03:56.416Z,8.73
2018-05-15T12:05:02.991Z,7.72
2018-05-15T12:06:09.480Z,7.90
2018-05-15T12:07:15.722Z,7.45
2018-05-15T12:08:22.165Z,7.80
2018-05-15T12:09:28.646Z,6.62
2018-05-15T12:10:35.045Z,6.75
2018-05-15T12:11:41.699Z,6.37
2018-05-15T12:12:48.084Z,5.80
2018-05-15T12:13:54.336Z,6.07
2018-05-15T12:15:01.466Z,5.50
2018-05-15T12:16:08.717Z,5.10
2018-05-15T12:17:15.183Z,5.62
2018-05-15T12:18:21.571Z,4.97
2018-05-15T12:19:27.846Z,6.25
2018-05-15T12:20:34.145Z,5.75
2018-05-15T12:21:40.429Z,6.18
2018-05-15T12:22:46.657Z,5.40
2018-05-15T12:23:52.985Z,6.82
2018-05-15T12:24:59.288Z,6.78
2018-05-15T12:26:05.569Z,6.37
2018-05-15T12:27:11.796Z,6.40
2018-05-15T12:28:18.725Z,7.25
2018-05-15T12:29:26.074Z,7.03
2018-05-15T12:30:32.478Z,7.35
2018-05-15T12:31:38.950Z,6.75
2018-05-15T12:32:45.319Z,4.62
2018-05-15T12:33:51.635Z,5.30
2018-05-15T12:34:58.728Z,6.05
2018-05-15T12:36:04.910Z,5.07
2018-05-15T12:37:10.836Z,5.07
2018-05-15T12:38:17.079Z,4.53
2018-05-15T12:39:23.930Z,4.93
2018-05-15T12:40:30.838Z,5.95
2018-05-15T12:41:37.778Z,5.53
2018-05-15T12:42:44.385Z,6.32
2018-05-15T12:43:51.642Z,5.72
2018-05-15T12:44:57.989Z,5.85
2018-05-15T12:46:03.613Z,5.87
2018-05-15T12:47:09.938Z,5.32
2018-05-15T12:48:16.342Z,5.45
2018-05-15T12:49:22.932Z,5.22
2018-05-15T12:50:30.033Z,5.35
2018-05-15T12:51:37.186Z,5.12
2018-05-15T12:52:43.434Z,6.12
2018-05-15T12:53:49.392Z,5.62
2018-05-15T12:54:55.610Z,5.55
2018-05-15T12:56:06.855Z,5.62
2018-05-15T12:57:13.159Z,5.70
2018-05-15T12:58:19.408Z,6.15
2018-05-15T12:59:25.695Z,5.43
2018-05-15T13:00:31.987Z,5.20
2018-05-15T13:01:38.264Z,4.82
2018-05-15T13:02:45.723Z,5.40
2018-05-15T13:03:51.983Z,5.15
2018-05-15T13:04:57.598Z,4.53
2018-05-15T13:06:04.736Z,4.47
2018-05-15T13:07:11.667Z,4.45
2018-05-15T13:08:17.713Z,5.35
2018-05-15T13:09:24.056Z,4.60
2018-05-15T13:10:30.366Z,4.93
2018-05-15T13:11:36.761Z,6.05
2018-05-15T13:12:43.006Z,5.62
2018-05-15T13:13:49.344Z,5.45
2018-05-15T13:14:56.409Z,4.95
2018-05-15T13:16:02.719Z,5.07
2018-05-15T13:17:08.935Z,5.50
2018-05-15T13:18:15.287Z,5.10
2018-05-15T13:19:21.890Z,5.60
2018-05-15T13:20:27.901Z,5.65
2018-05-15T13:21:34.178Z,5.60
2018-05-15T13:22:41.097Z,6.05
2018-05-15T13:23:48.131Z,6.10
2018-05-15T13:24:54.428Z,6.75
2018-05-15T13:26:00.736Z,6.25
2018-05-15T13:27:06.964Z,6.62
2018-05-15T13:28:13.281Z,6.20
2018-05-15T13:29:19.613Z,6.00
2018-05-15T13:30:25.926Z,6.82
2018-05-15T13:31:32.215Z,6.30
2018-05-15T13:32:38.517Z,6.30
2018-05-15T13:33:44.866Z,5.95
2018-05-15T13:34:51.142Z,5.65
2018-05-15T13:35:57.468Z,5.78
2018-05-15T13:37:03.865Z,6.60
2018-05-15T13:38:10.071Z,6.72
2018-05-15T13:39:16.453Z,5.30
2018-05-15T13:40:23.406Z,6.82
2018-05-15T13:41:29.654Z,6.62
2018-05-15T13:42:35.977Z,6.55
2018-05-15T13:43:42.904Z,6.75
2018-05-15T13:44:49.208Z,6.12
2018-05-15T13:45:55.486Z,6.12
2018-05-15T13:47:01.738Z,6.72
2018-05-15T13:48:08.023Z,7.00
2018-05-15T13:49:15.067Z,6.32
2018-05-15T13:50:21.356Z,6.68
2018-05-15T13:51:27.698Z,5.75
2018-05-15T13:52:33.985Z,6.32
2018-05-15T13:53:40.190Z,7.47
2018-05-15T13:54:46.551Z,6.70
2018-05-15T13:55:52.820Z,5.85
2018-05-15T13:56:59.130Z,7.10
2018-05-15T13:58:05.957Z,7.57
2018-05-15T13:59:12.282Z,7.28
2018-05-15T14:00:18.521Z,6.32
2018-05-15T14:01:24.792Z,5.97
2018-05-15T14:02:31.086Z,7.05
2018-05-15T14:03:37.327Z,5.62
2018-05-15T14:04:43.957Z,6.28
2018-05-15T14:05:50.140Z,6.37
2018-05-15T14:06:56.459Z,6.00
2018-05-15T14:08:02.759Z,7.25
2018-05-15T14:09:09.053Z,7.05
2018-05-15T14:10:15.325Z,6.75
2018-05-15T14:11:21.770Z,6.35
2018-05-15T14:12:28.107Z,7.10
2018-05-15T14:13:36.826Z,6.65
2018-05-15T14:14:43.621Z,6.20
2018-05-15T14:15:49.905Z,6.05
2018-05-15T14:16:56.228Z,5.93
2018-05-15T14:18:02.547Z,5.10
2018-05-15T14:19:08.868Z,4.90
2018-05-15T14:20:15.382Z,4.70
2018-05-15T14:21:21.722Z,5.10
2018-05-15T14:22:28.300Z,3.33
2018-05-15T14:23:34.808Z,4.03
2018-05-15T14:24:41.245Z,3.92
2018-05-15T14:25:47.914Z,4.20
2018-05-15T14:26:54.153Z,4.50
2018-05-15T14:28:00.363Z,4.65
2018-05-15T14:29:06.640Z,4.97
2018-05-15T14:30:15.250Z,4.95
2018-05-15T14:31:21.640Z,4.43
2018-05-15T14:32:28.058Z,4.90
2018-05-15T14:33:34.258Z,5.18
2018-05-15T14:34:40.510Z,5.22
2018-05-15T14:35:46.794Z,6.20
2018-05-15T14:36:53.369Z,7.35
2018-05-15T14:37:59.601Z,7.30
2018-05-15T14:39:05.140Z,7.10
2018-05-15T14:40:11.460Z,6.72
2018-05-15T14:41:17.417Z,6.00
2018-05-15T14:42:34.648Z,5.43
2018-05-15T14:43:40.626Z,5.00
2018-05-15T14:44:47.992Z,4.70
2018-05-15T14:45:54.260Z,5.57
2018-05-15T14:47:00.562Z,6.25